sensor_id;sensor_type;location;lat;lon;timestamp;pressure;altitude;pressure_sealevel;temperature;humidity
59831;BME280;45711;50.108;13.712;2022-09-04T00:01:47;97933.75;;;16.79;75.67
59831;BME280;45711;50.108;13.712;2022-09-04T00:04:23;97938.53;;;16.73;75.06
59831;BME280;45711;50.108;13.712;2022-09-04T00:07:00;97936.47;;;16.79;75.46
59831;BME280;45711;50.108;13.712;2022-09-04T00:09:34;97933.31;;;16.77;74.32
59831;BME280;45711;50.108;13.712;2022-09-04T00:12:06;97939.00;;;16.84;74.33
59831;BME280;45711;50.108;13.712;2022-09-04T00:14:39;97934.56;;;16.88;74.25
59831;BME280;45711;50.108;13.712;2022-09-04T00:17:10;97938.38;;;16.87;73.70
59831;BME280;45711;50.108;13.712;2022-09-04T00:19:43;97928.84;;;16.81;74.35
59831;BME280;45711;50.108;13.712;2022-09-04T00:22:22;97922.78;;;16.75;74.37
59831;BME280;45711;50.108;13.712;2022-09-04T00:24:58;97929.31;;;16.74;74.49
59831;BME280;45711;50.108;13.712;2022-09-04T00:27:31;97927.06;;;16.68;75.72
59831;BME280;45711;50.108;13.712;2022-09-04T00:30:08;97926.56;;;16.66;75.01
59831;BME280;45711;50.108;13.712;2022-09-04T00:32:40;97930.22;;;16.70;75.10
59831;BME280;45711;50.108;13.712;2022-09-04T00:35:13;97924.84;;;16.70;74.75
59831;BME280;45711;50.108;13.712;2022-09-04T00:37:44;97927.19;;;16.63;75.15
59831;BME280;45711;50.108;13.712;2022-09-04T00:40:19;97931.56;;;16.72;74.29
59831;BME280;45711;50.108;13.712;2022-09-04T00:43:01;97933.75;;;16.79;74.92
59831;BME280;45711;50.108;13.712;2022-09-04T00:45:39;97933.47;;;16.80;76.04
59831;BME280;45711;50.108;13.712;2022-09-04T00:48:49;97937.09;;;16.84;74.57
59831;BME280;45711;50.108;13.712;2022-09-04T00:51:23;97941.25;;;16.82;74.70
59831;BME280;45711;50.108;13.712;2022-09-04T00:54:03;97941.66;;;16.67;74.52
59831;BME280;45711;50.108;13.712;2022-09-04T00:56:54;97940.41;;;16.64;74.51
59831;BME280;45711;50.108;13.712;2022-09-04T00:59:41;97949.16;;;16.61;74.29
59831;BME280;45711;50.108;13.712;2022-09-04T01:02:24;97955.66;;;16.60;74.68
59831;BME280;45711;50.108;13.712;2022-09-04T01:04:57;97954.22;;;16.54;75.55
59831;BME280;45711;50.108;13.712;2022-09-04T01:07:42;97954.06;;;16.42;75.43
59831;BME280;45711;50.108;13.712;2022-09-04T01:10:35;97952.78;;;16.39;75.47
59831;BME280;45711;50.108;13.712;2022-09-04T01:13:10;97955.94;;;16.41;75.51
59831;BME280;45711;50.108;13.712;2022-09-04T01:15:43;97950.69;;;16.36;75.37
59831;BME280;45711;50.108;13.712;2022-09-04T01:18:16;97955.47;;;16.39;75.19
59831;BME280;45711;50.108;13.712;2022-09-04T01:21:09;97955.16;;;16.49;75.33
59831;BME280;45711;50.108;13.712;2022-09-04T01:24:02;97960.06;;;16.39;74.78
59831;BME280;45711;50.108;13.712;2022-09-04T01:26:39;97966.63;;;16.46;75.03
59831;BME280;45711;50.108;13.712;2022-09-04T01:29:17;97965.94;;;16.32;74.77
59831;BME280;45711;50.108;13.712;2022-09-04T01:31:49;97962.59;;;16.35;75.20
59831;BME280;45711;50.108;13.712;2022-09-04T01:34:34;97972.50;;;16.00;77.37
59831;BME280;45711;50.108;13.712;2022-09-04T01:37:13;97969.13;;;15.86;78.59
59831;BME280;45711;50.108;13.712;2022-09-04T01:39:46;97976.66;;;16.06;77.53
59831;BME280;45711;50.108;13.712;2022-09-04T01:42:22;97973.03;;;16.19;77.65
59831;BME280;45711;50.108;13.712;2022-09-04T01:44:51;97974.19;;;16.27;76.52
59831;BME280;45711;50.108;13.712;2022-09-04T01:47:20;97975.31;;;16.34;76.43
59831;BME280;45711;50.108;13.712;2022-09-04T01:49:56;97975.13;;;16.22;76.54
59831;BME280;45711;50.108;13.712;2022-09-04T01:52:34;97984.63;;;16.11;77.01
59831;BME280;45711;50.108;13.712;2022-09-04T01:55:11;97978.16;;;16.21;76.28
59831;BME280;45711;50.108;13.712;2022-09-04T01:57:48;97985.78;;;16.27;76.31
59831;BME280;45711;50.108;13.712;2022-09-04T02:00:19;97983.06;;;16.27;76.10
59831;BME280;45711;50.108;13.712;2022-09-04T02:02:54;97986.06;;;16.17;76.96
59831;BME280;45711;50.108;13.712;2022-09-04T02:05:29;97985.44;;;16.12;77.60
59831;BME280;45711;50.108;13.712;2022-09-04T02:08:11;97983.22;;;16.22;77.46
59831;BME280;45711;50.108;13.712;2022-09-04T02:10:44;97992.88;;;16.15;78.03
59831;BME280;45711;50.108;13.712;2022-09-04T02:13:18;97981.34;;;15.83;79.58
59831;BME280;45711;50.108;13.712;2022-09-04T02:15:54;97980.41;;;15.88;79.79
59831;BME280;45711;50.108;13.712;2022-09-04T02:18:32;97981.34;;;15.83;80.18
59831;BME280;45711;50.108;13.712;2022-09-04T02:21:08;97980.25;;;15.93;79.44
59831;BME280;45711;50.108;13.712;2022-09-04T02:23:39;97969.38;;;16.06;79.47
59831;BME280;45711;50.108;13.712;2022-09-04T02:26:12;97968.91;;;16.13;79.16
59831;BME280;45711;50.108;13.712;2022-09-04T02:28:50;97970.50;;;16.14;78.91
59831;BME280;45711;50.108;13.712;2022-09-04T02:31:25;97975.97;;;15.92;80.15
59831;BME280;45711;50.108;13.712;2022-09-04T02:34:00;97976.25;;;16.21;78.92
59831;BME280;45711;50.108;13.712;2022-09-04T02:36:34;97977.34;;;16.20;77.97
59831;BME280;45711;50.108;13.712;2022-09-04T02:39:09;97987.50;;;16.23;78.07
59831;BME280;45711;50.108;13.712;2022-09-04T02:41:41;97989.25;;;16.19;78.20
59831;BME280;45711;50.108;13.712;2022-09-04T02:44:28;97986.88;;;16.26;78.25
59831;BME280;45711;50.108;13.712;2022-09-04T02:47:05;97986.88;;;16.26;77.74
59831;BME280;45711;50.108;13.712;2022-09-04T02:49:46;97982.25;;;16.18;78.52
59831;BME280;45711;50.108;13.712;2022-09-04T02:52:25;97987.03;;;16.21;77.28
59831;BME280;45711;50.108;13.712;2022-09-04T02:55:02;97987.84;;;16.22;77.85
59831;BME280;45711;50.108;13.712;2022-09-04T02:57:39;97990.06;;;16.20;77.47
59831;BME280;45711;50.108;13.712;2022-09-04T03:00:16;97995.28;;;16.16;77.68
59831;BME280;45711;50.108;13.712;2022-09-04T03:02:47;97985.31;;;16.25;77.59
59831;BME280;45711;50.108;13.712;2022-09-04T03:05:18;97986.25;;;16.21;77.59
59831;BME280;45711;50.108;13.712;2022-09-04T03:07:52;97986.88;;;16.18;77.87
59831;BME280;45711;50.108;13.712;2022-09-04T03:10:24;97983.09;;;15.88;79.63
59831;BME280;45711;50.108;13.712;2022-09-04T03:12:58;97992.34;;;15.95;78.89
59831;BME280;45711;50.108;13.712;2022-09-04T03:15:31;97992.06;;;16.05;78.57
59831;BME280;45711;50.108;13.712;2022-09-04T03:18:03;98001.16;;;16.18;77.65
59831;BME280;45711;50.108;13.712;2022-09-04T03:20:32;97995.72;;;16.09;77.69
59831;BME280;45711;50.108;13.712;2022-09-04T03:23:05;97999.53;;;16.08;78.43
59831;BME280;45711;50.108;13.712;2022-09-04T03:25:48;97992.81;;;15.97;78.57
59831;BME280;45711;50.108;13.712;2022-09-04T03:28:22;97994.44;;;15.98;78.80
59831;BME280;45711;50.108;13.712;2022-09-04T03:30:52;97990.28;;;16.01;78.89
59831;BME280;45711;50.108;13.712;2022-09-04T03:33:27;97990.28;;;16.01;78.17
59831;BME280;45711;50.108;13.712;2022-09-04T03:36:01;97999.53;;;15.69;79.73
59831;BME280;45711;50.108;13.712;2022-09-04T03:38:31;97998.72;;;15.46;81.13
59831;BME280;45711;50.108;13.712;2022-09-04T03:41:12;98001.72;;;15.44;81.41
59831;BME280;45711;50.108;13.712;2022-09-04T03:44:02;97997.66;;;15.55;80.97
59831;BME280;45711;50.108;13.712;2022-09-04T03:46:46;97995.25;;;15.54;81.01
59831;BME280;45711;50.108;13.712;2022-09-04T03:49:24;98010.00;;;15.70;80.49
59831;BME280;45711;50.108;13.712;2022-09-04T03:52:00;98012.56;;;15.75;79.98
59831;BME280;45711;50.108;13.712;2022-09-04T03:54:43;98005.94;;;15.81;79.42
59831;BME280;45711;50.108;13.712;2022-09-04T03:57:23;98013.38;;;15.84;79.19
59831;BME280;45711;50.108;13.712;2022-09-04T04:00:06;98015.19;;;15.89;79.14
59831;BME280;45711;50.108;13.712;2022-09-04T04:03:00;98016.44;;;15.92;78.98
59831;BME280;45711;50.108;13.712;2022-09-04T04:05:33;98023.44;;;15.93;78.88
59831;BME280;45711;50.108;13.712;2022-09-04T04:08:27;98035.47;;;15.87;78.93
59831;BME280;45711;50.108;13.712;2022-09-04T04:11:04;98032.97;;;15.90;78.77
59831;BME280;45711;50.108;13.712;2022-09-04T04:13:43;98036.31;;;15.96;78.58
59831;BME280;45711;50.108;13.712;2022-09-04T04:16:21;98029.63;;;15.93;79.54
59831;BME280;45711;50.108;13.712;2022-09-04T04:18:58;98036.63;;;15.94;78.79
59831;BME280;45711;50.108;13.712;2022-09-04T04:21:34;98036.63;;;15.94;78.49
59831;BME280;45711;50.108;13.712;2022-09-04T04:24:16;98025.34;;;15.92;77.90
59831;BME280;45711;50.108;13.712;2022-09-04T04:27:01;98025.38;;;16.01;78.51
59831;BME280;45711;50.108;13.712;2022-09-04T04:29:45;98027.03;;;15.79;79.30
59831;BME280;45711;50.108;13.712;2022-09-04T04:32:28;98031.63;;;15.79;79.39
59831;BME280;45711;50.108;13.712;2022-09-04T04:35:06;98045.91;;;15.79;79.61
59831;BME280;45711;50.108;13.712;2022-09-04T04:37:44;98045.91;;;15.79;79.45
59831;BME280;45711;50.108;13.712;2022-09-04T04:40:23;98054.28;;;15.69;80.09
59831;BME280;45711;50.108;13.712;2022-09-04T04:42:58;98056.16;;;15.69;79.84
59831;BME280;45711;50.108;13.712;2022-09-04T04:45:30;98056.41;;;15.58;80.28
59831;BME280;45711;50.108;13.712;2022-09-04T04:48:52;98059.09;;;15.58;80.25
59831;BME280;45711;50.108;13.712;2022-09-04T04:51:50;98060.31;;;15.52;80.94
59831;BME280;45711;50.108;13.712;2022-09-04T04:54:42;98075.66;;;15.66;80.27
59831;BME280;45711;50.108;13.712;2022-09-04T04:57:21;98077.94;;;15.72;79.92
59831;BME280;45711;50.108;13.712;2022-09-04T05:00:01;98074.19;;;15.82;79.28
59831;BME280;45711;50.108;13.712;2022-09-04T05:02:36;98081.66;;;15.85;79.55
59831;BME280;45711;50.108;13.712;2022-09-04T05:05:10;98085.97;;;15.86;79.41
59831;BME280;45711;50.108;13.712;2022-09-04T05:07:45;98088.06;;;15.89;78.80
59831;BME280;45711;50.108;13.712;2022-09-04T05:10:19;98087.50;;;15.78;79.49
59831;BME280;45711;50.108;13.712;2022-09-04T05:12:54;98091.91;;;15.74;79.51
59831;BME280;45711;50.108;13.712;2022-09-04T05:15:28;98086.19;;;15.76;79.41
59831;BME280;45711;50.108;13.712;2022-09-04T05:18:03;98093.25;;;15.86;77.50
59831;BME280;45711;50.108;13.712;2022-09-04T05:20:38;98100.03;;;15.61;79.18
59831;BME280;45711;50.108;13.712;2022-09-04T05:23:27;98102.66;;;15.52;79.70
59831;BME280;45711;50.108;13.712;2022-09-04T05:26:01;98104.75;;;15.55;79.46
59831;BME280;45711;50.108;13.712;2022-09-04T05:28:37;98109.16;;;15.51;80.03
59831;BME280;45711;50.108;13.712;2022-09-04T05:31:15;98104.88;;;15.50;80.01
59831;BME280;45711;50.108;13.712;2022-09-04T05:33:50;98107.94;;;15.57;79.01
59831;BME280;45711;50.108;13.712;2022-09-04T05:36:25;98110.34;;;15.58;78.84
59831;BME280;45711;50.108;13.712;2022-09-04T05:39:07;98105.84;;;15.54;78.23
59831;BME280;45711;50.108;13.712;2022-09-04T05:41:38;98116.81;;;15.57;78.29
59831;BME280;45711;50.108;13.712;2022-09-04T05:44:29;98117.00;;;15.61;77.66
59831;BME280;45711;50.108;13.712;2022-09-04T05:47:07;98113.94;;;15.54;75.91
59831;BME280;45711;50.108;13.712;2022-09-04T05:52:46;98132.06;;;15.76;75.95
59831;BME280;45711;50.108;13.712;2022-09-04T05:55:34;98132.56;;;15.78;77.01
59831;BME280;45711;50.108;13.712;2022-09-04T05:58:23;98142.31;;;15.88;77.08
59831;BME280;45711;50.108;13.712;2022-09-04T06:01:02;98135.38;;;15.95;76.53
59831;BME280;45711;50.108;13.712;2022-09-04T06:06:35;98136.78;;;16.15;76.77
59831;BME280;45711;50.108;13.712;2022-09-04T06:09:21;98134.44;;;16.22;75.64
59831;BME280;45711;50.108;13.712;2022-09-04T06:12:06;98133.34;;;16.32;75.93
59831;BME280;45711;50.108;13.712;2022-09-04T06:20:48;98135.84;;;16.51;73.82
59831;BME280;45711;50.108;13.712;2022-09-04T06:23:40;98142.41;;;17.07;71.63
59831;BME280;45711;50.108;13.712;2022-09-04T06:26:25;98140.88;;;17.84;68.98
59831;BME280;45711;50.108;13.712;2022-09-04T06:29:03;98138.13;;;18.66;64.26
59831;BME280;45711;50.108;13.712;2022-09-04T06:31:46;98142.72;;;19.54;61.42
59831;BME280;45711;50.108;13.712;2022-09-04T06:34:27;98140.13;;;19.99;58.53
59831;BME280;45711;50.108;13.712;2022-09-04T06:37:10;98140.88;;;20.33;58.89
59831;BME280;45711;50.108;13.712;2022-09-04T06:39:53;98154.47;;;21.03;55.85
59831;BME280;45711;50.108;13.712;2022-09-04T06:42:45;98154.38;;;21.64;54.32
59831;BME280;45711;50.108;13.712;2022-09-04T06:45:29;98163.59;;;21.88;53.39
59831;BME280;45711;50.108;13.712;2022-09-04T06:48:05;98168.38;;;22.19;53.14
59831;BME280;45711;50.108;13.712;2022-09-04T06:50:42;98162.25;;;22.85;50.84
59831;BME280;45711;50.108;13.712;2022-09-04T06:53:16;98169.13;;;23.11;51.32
59831;BME280;45711;50.108;13.712;2022-09-04T06:55:55;98168.41;;;23.29;49.66
59831;BME280;45711;50.108;13.712;2022-09-04T07:01:36;98184.22;;;23.94;47.71
59831;BME280;45711;50.108;13.712;2022-09-04T07:04:15;98186.13;;;23.90;48.83
59831;BME280;45711;50.108;13.712;2022-09-04T07:06:57;98191.09;;;24.46;47.10
59831;BME280;45711;50.108;13.712;2022-09-04T07:09:32;98194.91;;;24.42;46.51
59831;BME280;45711;50.108;13.712;2022-09-04T07:12:32;98206.88;;;24.76;46.17
59831;BME280;45711;50.108;13.712;2022-09-04T07:15:32;98201.53;;;25.32;45.06
59831;BME280;45711;50.108;13.712;2022-09-04T07:18:08;98205.28;;;25.21;44.87
59831;BME280;45711;50.108;13.712;2022-09-04T07:20:48;98207.75;;;25.56;44.94
59831;BME280;45711;50.108;13.712;2022-09-04T07:23:28;98217.59;;;25.87;43.61
59831;BME280;45711;50.108;13.712;2022-09-04T07:26:05;98214.94;;;25.94;43.82
59831;BME280;45711;50.108;13.712;2022-09-04T07:29:14;98227.38;;;25.88;44.31
59831;BME280;45711;50.108;13.712;2022-09-04T07:31:53;98210.63;;;26.27;42.71
59831;BME280;45711;50.108;13.712;2022-09-04T07:34:28;98211.25;;;26.88;40.01
59831;BME280;45711;50.108;13.712;2022-09-04T07:37:04;98214.34;;;27.27;39.52
59831;BME280;45711;50.108;13.712;2022-09-04T07:39:43;98219.63;;;27.57;37.94
59831;BME280;45711;50.108;13.712;2022-09-04T07:42:16;98218.69;;;28.01;37.42
59831;BME280;45711;50.108;13.712;2022-09-04T07:44:51;98233.28;;;27.46;39.48
59831;BME280;45711;50.108;13.712;2022-09-04T07:47:21;98235.19;;;26.87;39.28
59831;BME280;45711;50.108;13.712;2022-09-04T07:50:01;98245.22;;;26.72;40.00
59831;BME280;45711;50.108;13.712;2022-09-04T07:52:47;98242.19;;;24.85;44.75
59831;BME280;45711;50.108;13.712;2022-09-04T07:55:23;98243.41;;;25.60;42.39
59831;BME280;45711;50.108;13.712;2022-09-04T07:58:25;98250.06;;;27.82;38.53
59831;BME280;45711;50.108;13.712;2022-09-04T08:01:12;98247.69;;;27.29;39.63
59831;BME280;45711;50.108;13.712;2022-09-04T08:03:58;98248.88;;;27.90;38.75
59831;BME280;45711;50.108;13.712;2022-09-04T08:06:37;98255.56;;;28.98;37.48
59831;BME280;45711;50.108;13.712;2022-09-04T08:09:36;98257.88;;;28.74;37.05
59831;BME280;45711;50.108;13.712;2022-09-04T08:15:13;98257.81;;;28.49;37.24
59831;BME280;45711;50.108;13.712;2022-09-04T08:20:54;98268.56;;;29.40;35.19
59831;BME280;45711;50.108;13.712;2022-09-04T08:23:41;98265.00;;;29.25;34.64
59831;BME280;45711;50.108;13.712;2022-09-04T08:26:14;98273.63;;;28.85;36.30
59831;BME280;45711;50.108;13.712;2022-09-04T08:28:54;98267.81;;;28.02;37.47
59831;BME280;45711;50.108;13.712;2022-09-04T08:31:29;98271.25;;;28.94;35.13
59831;BME280;45711;50.108;13.712;2022-09-04T08:34:18;98274.84;;;29.66;34.34
59831;BME280;45711;50.108;13.712;2022-09-04T08:36:49;98278.75;;;28.83;36.02
59831;BME280;45711;50.108;13.712;2022-09-04T08:39:29;98273.78;;;28.15;37.08
59831;BME280;45711;50.108;13.712;2022-09-04T08:54:39;98262.88;;;24.40;46.16
59831;BME280;45711;50.108;13.712;2022-09-04T09:00:33;98259.56;;;25.38;42.96
59831;BME280;45711;50.108;13.712;2022-09-04T09:12:54;98262.03;;;25.01;45.14
59831;BME280;45711;50.108;13.712;2022-09-04T09:15:48;98265.38;;;24.10;47.31
59831;BME280;45711;50.108;13.712;2022-09-04T09:18:34;98265.94;;;24.19;47.21
59831;BME280;45711;50.108;13.712;2022-09-04T09:21:10;98256.88;;;23.60;48.40
59831;BME280;45711;50.108;13.712;2022-09-04T09:24:07;98265.16;;;23.48;48.93
59831;BME280;45711;50.108;13.712;2022-09-04T09:27:10;98260.47;;;23.99;47.67
59831;BME280;45711;50.108;13.712;2022-09-04T09:30:02;98262.25;;;23.41;49.20
59831;BME280;45711;50.108;13.712;2022-09-04T09:33:24;98268.75;;;24.22;47.31
59831;BME280;45711;50.108;13.712;2022-09-04T09:45:20;98262.31;;;25.15;45.21
59831;BME280;45711;50.108;13.712;2022-09-04T09:50:48;98258.78;;;25.91;42.34
59831;BME280;45711;50.108;13.712;2022-09-04T09:53:41;98257.09;;;25.83;41.71
59831;BME280;45711;50.108;13.712;2022-09-04T10:05:31;98255.78;;;26.03;40.78
59831;BME280;45711;50.108;13.712;2022-09-04T10:08:24;98238.78;;;24.68;46.00
59831;BME280;45711;50.108;13.712;2022-09-04T10:11:15;98241.56;;;24.10;47.49
59831;BME280;45711;50.108;13.712;2022-09-04T10:17:32;98238.97;;;24.56;46.57
59831;BME280;45711;50.108;13.712;2022-09-04T10:20:30;98235.66;;;23.89;48.04
59831;BME280;45711;50.108;13.712;2022-09-04T10:26:46;98247.59;;;25.76;41.51
59831;BME280;45711;50.108;13.712;2022-09-04T10:29:39;98245.53;;;24.97;45.49
59831;BME280;45711;50.108;13.712;2022-09-04T10:35:09;98240.84;;;24.13;47.68
59831;BME280;45711;50.108;13.712;2022-09-04T10:37:52;98243.22;;;24.34;44.32
59831;BME280;45711;50.108;13.712;2022-09-04T10:40:25;98242.16;;;25.27;42.63
59831;BME280;45711;50.108;13.712;2022-09-04T10:43:17;98238.75;;;25.60;42.34
59831;BME280;45711;50.108;13.712;2022-09-04T10:45:55;98237.88;;;24.83;43.12
59831;BME280;45711;50.108;13.712;2022-09-04T10:48:34;98232.34;;;24.38;47.10
59831;BME280;45711;50.108;13.712;2022-09-04T10:51:35;98242.78;;;25.70;41.23
59831;BME280;45711;50.108;13.712;2022-09-04T10:54:22;98245.72;;;24.62;46.63
59831;BME280;45711;50.108;13.712;2022-09-04T10:57:06;98243.16;;;24.30;47.72
59831;BME280;45711;50.108;13.712;2022-09-04T10:59:57;98241.41;;;24.84;46.36
59831;BME280;45711;50.108;13.712;2022-09-04T11:05:50;98241.72;;;25.02;43.59
59831;BME280;45711;50.108;13.712;2022-09-04T11:08:44;98255.31;;;25.18;44.66
59831;BME280;45711;50.108;13.712;2022-09-04T11:11:48;98249.69;;;25.60;42.58
59831;BME280;45711;50.108;13.712;2022-09-04T11:14:21;98254.41;;;25.86;42.74
59831;BME280;45711;50.108;13.712;2022-09-04T11:17:25;98243.56;;;25.70;41.65
59831;BME280;45711;50.108;13.712;2022-09-04T11:29:34;98244.09;;;24.80;45.71
59831;BME280;45711;50.108;13.712;2022-09-04T11:32:24;98243.31;;;25.52;44.23
59831;BME280;45711;50.108;13.712;2022-09-04T11:38:09;98234.84;;;24.89;45.83
59831;BME280;45711;50.108;13.712;2022-09-04T11:41:11;98233.44;;;24.14;48.32
59831;BME280;45711;50.108;13.712;2022-09-04T11:43:57;98223.28;;;23.59;46.77
59831;BME280;45711;50.108;13.712;2022-09-04T11:46:41;98222.19;;;24.57;46.51
59831;BME280;45711;50.108;13.712;2022-09-04T11:49:31;98220.13;;;23.73;49.04
59831;BME280;45711;50.108;13.712;2022-09-04T11:52:15;98217.53;;;24.19;46.53
59831;BME280;45711;50.108;13.712;2022-09-04T11:55:07;98226.88;;;24.18;48.58
59831;BME280;45711;50.108;13.712;2022-09-04T11:57:43;98219.63;;;24.26;46.48
59831;BME280;45711;50.108;13.712;2022-09-04T12:00:16;98219.50;;;24.61;43.65
59831;BME280;45711;50.108;13.712;2022-09-04T12:06:43;98230.41;;;24.80;44.46
59831;BME280;45711;50.108;13.712;2022-09-04T12:09:48;98221.22;;;24.92;45.01
59831;BME280;45711;50.108;13.712;2022-09-04T12:12:43;98225.97;;;25.45;45.00
59831;BME280;45711;50.108;13.712;2022-09-04T12:15:30;98221.94;;;24.43;47.00
59831;BME280;45711;50.108;13.712;2022-09-04T12:18:31;98221.88;;;24.86;45.01
59831;BME280;45711;50.108;13.712;2022-09-04T12:21:23;98223.09;;;24.65;46.83
59831;BME280;45711;50.108;13.712;2022-09-04T12:30:09;98215.44;;;25.20;44.47
59831;BME280;45711;50.108;13.712;2022-09-04T12:41:52;98213.84;;;24.50;44.93
59831;BME280;45711;50.108;13.712;2022-09-04T12:44:34;98220.63;;;25.55;41.61
59831;BME280;45711;50.108;13.712;2022-09-04T12:47:14;98210.97;;;25.35;42.71
59831;BME280;45711;50.108;13.712;2022-09-04T12:50:06;98222.13;;;25.49;44.79
59831;BME280;45711;50.108;13.712;2022-09-04T12:52:49;98221.88;;;25.31;42.18
59831;BME280;45711;50.108;13.712;2022-09-04T12:55:24;98225.06;;;25.37;45.04
59831;BME280;45711;50.108;13.712;2022-09-04T12:58:06;98226.19;;;25.59;42.94
59831;BME280;45711;50.108;13.712;2022-09-04T13:00:39;98222.88;;;24.12;48.75
59831;BME280;45711;50.108;13.712;2022-09-04T13:03:13;98230.66;;;24.95;44.46
59831;BME280;45711;50.108;13.712;2022-09-04T13:05:56;98225.88;;;25.38;44.56
59831;BME280;45711;50.108;13.712;2022-09-04T13:08:37;98229.31;;;25.31;43.65
59831;BME280;45711;50.108;13.712;2022-09-04T13:11:15;98236.63;;;25.50;43.57
59831;BME280;45711;50.108;13.712;2022-09-04T13:13:49;98241.31;;;25.49;43.04
59831;BME280;45711;50.108;13.712;2022-09-04T13:16:24;98246.13;;;25.56;43.47
59831;BME280;45711;50.108;13.712;2022-09-04T13:19:03;98235.38;;;24.98;46.54
59831;BME280;45711;50.108;13.712;2022-09-04T13:21:50;98235.22;;;24.87;45.82
59831;BME280;45711;50.108;13.712;2022-09-04T13:24:29;98243.91;;;24.93;44.64
59831;BME280;45711;50.108;13.712;2022-09-04T13:27:18;98241.09;;;25.09;44.29
59831;BME280;45711;50.108;13.712;2022-09-04T13:30:02;98248.78;;;24.80;46.32
59831;BME280;45711;50.108;13.712;2022-09-04T13:33:02;98249.41;;;25.16;44.14
59831;BME280;45711;50.108;13.712;2022-09-04T13:35:44;98249.06;;;24.98;45.46
59831;BME280;45711;50.108;13.712;2022-09-04T13:41:32;98252.44;;;24.88;45.60
59831;BME280;45711;50.108;13.712;2022-09-04T13:47:05;98249.50;;;23.80;49.88
59831;BME280;45711;50.108;13.712;2022-09-04T13:49:36;98252.38;;;23.68;50.62
59831;BME280;45711;50.108;13.712;2022-09-04T13:52:07;98248.56;;;23.72;50.38
59831;BME280;45711;50.108;13.712;2022-09-04T13:54:37;98246.38;;;24.17;48.77
59831;BME280;45711;50.108;13.712;2022-09-04T13:57:10;98236.66;;;24.19;47.06
59831;BME280;45711;50.108;13.712;2022-09-04T13:59:39;98245.47;;;24.48;48.15
59831;BME280;45711;50.108;13.712;2022-09-04T14:02:10;98235.22;;;24.45;47.70
59831;BME280;45711;50.108;13.712;2022-09-04T14:04:42;98245.91;;;24.73;45.57
59831;BME280;45711;50.108;13.712;2022-09-04T14:07:16;98246.56;;;24.66;48.02
59831;BME280;45711;50.108;13.712;2022-09-04T14:09:45;98243.38;;;24.41;48.25
59831;BME280;45711;50.108;13.712;2022-09-04T14:12:32;98243.75;;;24.63;44.68
59831;BME280;45711;50.108;13.712;2022-09-04T14:15:16;98243.47;;;24.68;44.58
59831;BME280;45711;50.108;13.712;2022-09-04T14:17:52;98239.38;;;24.58;45.52
59831;BME280;45711;50.108;13.712;2022-09-04T14:20:21;98246.16;;;24.45;46.07
59831;BME280;45711;50.108;13.712;2022-09-04T14:22:59;98242.88;;;25.01;44.41
59831;BME280;45711;50.108;13.712;2022-09-04T14:25:35;98243.03;;;25.08;44.24
59831;BME280;45711;50.108;13.712;2022-09-04T14:28:11;98241.09;;;25.09;43.53
59831;BME280;45711;50.108;13.712;2022-09-04T14:30:45;98244.16;;;24.84;44.69
59831;BME280;45711;50.108;13.712;2022-09-04T14:33:21;98254.47;;;24.71;44.40
59831;BME280;45711;50.108;13.712;2022-09-04T14:35:57;98250.00;;;24.82;47.01
59831;BME280;45711;50.108;13.712;2022-09-04T14:41:38;98252.53;;;24.72;44.53
59831;BME280;45711;50.108;13.712;2022-09-04T14:44:23;98256.72;;;24.66;45.02
59831;BME280;45711;50.108;13.712;2022-09-04T14:46:59;98256.19;;;24.79;44.56
59831;BME280;45711;50.108;13.712;2022-09-04T14:49:39;98259.84;;;24.87;47.52
59831;BME280;45711;50.108;13.712;2022-09-04T14:52:10;98264.03;;;24.39;49.23
59831;BME280;45711;50.108;13.712;2022-09-04T14:54:39;98263.00;;;24.66;45.49
59831;BME280;45711;50.108;13.712;2022-09-04T14:57:15;98264.22;;;24.92;45.65
59831;BME280;45711;50.108;13.712;2022-09-04T14:59:46;98265.34;;;25.10;44.90
59831;BME280;45711;50.108;13.712;2022-09-04T15:02:22;98256.13;;;24.99;44.46
59831;BME280;45711;50.108;13.712;2022-09-04T15:04:56;98264.53;;;24.87;44.97
59831;BME280;45711;50.108;13.712;2022-09-04T15:07:25;98267.31;;;24.90;44.02
59831;BME280;45711;50.108;13.712;2022-09-04T15:10:06;98264.47;;;24.41;47.86
59831;BME280;45711;50.108;13.712;2022-09-04T15:12:41;98262.53;;;24.83;45.60
59831;BME280;45711;50.108;13.712;2022-09-04T15:15:16;98264.94;;;24.89;44.41
59831;BME280;45711;50.108;13.712;2022-09-04T15:17:46;98268.06;;;24.87;44.58
59831;BME280;45711;50.108;13.712;2022-09-04T15:20:20;98271.47;;;24.38;47.45
59831;BME280;45711;50.108;13.712;2022-09-04T15:22:50;98271.09;;;24.40;46.92
59831;BME280;45711;50.108;13.712;2022-09-04T15:25:31;98268.31;;;24.59;46.22
59831;BME280;45711;50.108;13.712;2022-09-04T15:28:07;98270.16;;;24.51;46.94
59831;BME280;45711;50.108;13.712;2022-09-04T15:30:39;98267.03;;;24.53;46.32
59831;BME280;45711;50.108;13.712;2022-09-04T15:33:07;98266.56;;;24.47;47.23
59831;BME280;45711;50.108;13.712;2022-09-04T15:35:35;98266.66;;;24.35;47.63
59831;BME280;45711;50.108;13.712;2022-09-04T15:38:04;98268.72;;;24.38;45.19
59831;BME280;45711;50.108;13.712;2022-09-04T15:40:33;98273.06;;;24.23;46.32
59831;BME280;45711;50.108;13.712;2022-09-04T15:43:07;98278.69;;;24.30;46.33
59831;BME280;45711;50.108;13.712;2022-09-04T15:45:43;98266.88;;;24.26;46.18
59831;BME280;45711;50.108;13.712;2022-09-04T15:48:25;98273.44;;;24.22;47.57
59831;BME280;45711;50.108;13.712;2022-09-04T15:51:03;98277.47;;;24.28;46.56
59831;BME280;45711;50.108;13.712;2022-09-04T15:53:35;98281.25;;;24.39;46.95
59831;BME280;45711;50.108;13.712;2022-09-04T15:56:05;98281.97;;;24.20;49.15
59831;BME280;45711;50.108;13.712;2022-09-04T15:58:42;98285.28;;;24.10;47.48